FDX73 KBOS-KIAD
Flight info
| Callsign | FDX73 |
|---|---|
| Flight time | 1h 6m |
| Altitude | 34000 |
| Route | BLZZR6 BLZZR BAF HYPER9 |
| Aircraft | MD11/H-SDE1E2E3FGHIJ2J3J4J5M1RWXY/LB1D1 |
Departure
| Time | 2026-05-04 23:17 |
|---|---|
| Airport | Boston Logan International Airport (KBOS) |
Arrival
| Time | 2026-05-05 00:24 |
|---|---|
| Airport | Washington Dulles International Airport (KIAD) |
| Time | Latitude | Longitude | Altitude | Speed | Heading |
|---|---|---|---|---|---|
| 2026-05-04 22:45 | 42.35934 | -71.02227 | 19 ft | 0 kts | 210° |
| 2026-05-04 23:02 | 42.35938 | -71.02224 | 22 ft | 0 kts | 210° |
| 2026-05-04 23:02 | 42.35947 | -71.02216 | 22 ft | 2 kts | 204° |
| 2026-05-04 23:02 | 42.35961 | -71.02210 | 22 ft | 2 kts | 188° |
| 2026-05-04 23:03 | 42.35976 | -71.02209 | 22 ft | 2 kts | 176° |
| 2026-05-04 23:03 | 42.35992 | -71.02213 | 22 ft | 2 kts | 163° |
| 2026-05-04 23:03 | 42.36005 | -71.02220 | 22 ft | 2 kts | 150° |
| 2026-05-04 23:03 | 42.36018 | -71.02232 | 22 ft | 2 kts | 137° |
| 2026-05-04 23:04 | 42.36028 | -71.02247 | 22 ft | 2 kts | 124° |
| 2026-05-04 23:04 | 42.36032 | -71.02255 | 22 ft | 1 kts | 120° |
| 2026-05-04 23:04 | 42.36033 | -71.02256 | 22 ft | 0 kts | 120° |
| 2026-05-04 23:08 | 42.36026 | -71.02242 | 22 ft | 3 kts | 121° |
| 2026-05-04 23:09 | 42.36008 | -71.02199 | 22 ft | 7 kts | 121° |
| 2026-05-04 23:09 | 42.35978 | -71.02133 | 22 ft | 8 kts | 121° |
| 2026-05-04 23:09 | 42.35944 | -71.02057 | 24 ft | 10 kts | 121° |
| 2026-05-04 23:09 | 42.35903 | -71.01962 | 25 ft | 13 kts | 121° |
| 2026-05-04 23:10 | 42.35856 | -71.01844 | 25 ft | 15 kts | 109° |
| 2026-05-04 23:10 | 42.35830 | -71.01683 | 25 ft | 18 kts | 101° |
| 2026-05-04 23:10 | 42.35867 | -71.01554 | 27 ft | 15 kts | 22° |
| 2026-05-04 23:10 | 42.35973 | -71.01508 | 25 ft | 16 kts | 19° |
| 2026-05-04 23:11 | 42.36088 | -71.01453 | 25 ft | 17 kts | 20° |
| 2026-05-04 23:11 | 42.36205 | -71.01396 | 25 ft | 17 kts | 20° |
| 2026-05-04 23:11 | 42.36323 | -71.01338 | 25 ft | 18 kts | 20° |
| 2026-05-04 23:11 | 42.36445 | -71.01280 | 25 ft | 18 kts | 20° |
| 2026-05-04 23:12 | 42.36571 | -71.01218 | 24 ft | 20 kts | 19° |
| 2026-05-04 23:12 | 42.36708 | -71.01153 | 22 ft | 19 kts | 16° |
| 2026-05-04 23:12 | 42.36817 | -71.01187 | 22 ft | 11 kts | 321° |
| 2026-05-04 23:12 | 42.36872 | -71.01230 | 22 ft | 7 kts | 12° |
| 2026-05-04 23:13 | 42.36916 | -71.01189 | 22 ft | 7 kts | 40° |
| 2026-05-04 23:13 | 42.36966 | -71.01133 | 22 ft | 11 kts | 38° |
| 2026-05-04 23:13 | 42.37044 | -71.01070 | 21 ft | 15 kts | 26° |
| 2026-05-04 23:13 | 42.37153 | -71.01000 | 19 ft | 19 kts | 25° |
| 2026-05-04 23:14 | 42.37288 | -71.00914 | 19 ft | 22 kts | 24° |
| 2026-05-04 23:14 | 42.37450 | -71.00832 | 19 ft | 26 kts | 20° |
| 2026-05-04 23:14 | 42.37636 | -71.00743 | 19 ft | 29 kts | 20° |
| 2026-05-04 23:14 | 42.37749 | -71.00685 | 19 ft | 5 kts | 19° |
| 2026-05-04 23:15 | 42.37792 | -71.00664 | 19 ft | 7 kts | 22° |
| 2026-05-04 23:15 | 42.37828 | -71.00610 | 19 ft | 7 kts | 79° |
| 2026-05-04 23:15 | 42.37821 | -71.00527 | 19 ft | 10 kts | 108° |
| 2026-05-04 23:15 | 42.37776 | -71.00484 | 19 ft | 8 kts | 183° |
| 2026-05-04 23:16 | 42.37756 | -71.00489 | 19 ft | 0 kts | 199° |
| 2026-05-04 23:16 | 42.37754 | -71.00491 | 19 ft | 1 kts | 199° |
| 2026-05-04 23:17 | 42.37672 | -71.00530 | 19 ft | 39 kts | 199° |
| 2026-05-04 23:17 | 42.37183 | -71.00763 | 19 ft | 107 kts | 199° |
| 2026-05-04 23:17 | 42.36276 | -71.01199 | 35 ft | 161 kts | 200° |
| 2026-05-04 23:17 | 42.35223 | -71.01691 | 652 ft | 155 kts | 199° |
| 2026-05-04 23:18 | 42.34145 | -71.01778 | 1120 ft | 168 kts | 163° |
| 2026-05-04 23:18 | 42.33232 | -71.00745 | 1658 ft | 178 kts | 136° |
| 2026-05-04 23:18 | 42.32485 | -70.99392 | 2154 ft | 180 kts | 129° |
| 2026-05-04 23:18 | 42.31801 | -70.97957 | 2585 ft | 185 kts | 128° |
| 2026-05-04 23:19 | 42.31233 | -70.96346 | 3035 ft | 194 kts | 108° |
| 2026-05-04 23:19 | 42.31160 | -70.94471 | 3371 ft | 210 kts | 86° |
| 2026-05-04 23:19 | 42.31457 | -70.92422 | 3576 ft | 232 kts | 78° |
| 2026-05-04 23:19 | 42.31900 | -70.90221 | 3768 ft | 250 kts | 77° |
| 2026-05-04 23:20 | 42.32333 | -70.87846 | 3982 ft | 273 kts | 79° |
| 2026-05-04 23:20 | 42.32733 | -70.85239 | 4377 ft | 289 kts | 81° |
| 2026-05-04 23:20 | 42.33093 | -70.82501 | 4917 ft | 300 kts | 86° |
| 2026-05-04 23:20 | 42.33118 | -70.79637 | 5591 ft | 303 kts | 103° |
| 2026-05-04 23:21 | 42.32525 | -70.76933 | 6368 ft | 303 kts | 120° |
| 2026-05-04 23:21 | 42.31519 | -70.74404 | 7159 ft | 306 kts | 130° |
| 2026-05-04 23:21 | 42.30093 | -70.72343 | 8002 ft | 298 kts | 152° |
| 2026-05-04 23:21 | 42.28261 | -70.71155 | 8809 ft | 288 kts | 173° |
| 2026-05-04 23:22 | 42.26286 | -70.71010 | 9607 ft | 281 kts | 193° |
| 2026-05-04 23:22 | 42.24347 | -70.71545 | 10315 ft | 286 kts | 198° |
| 2026-05-04 23:22 | 42.22397 | -70.72237 | 10941 ft | 295 kts | 201° |
| 2026-05-04 23:22 | 42.20521 | -70.73362 | 11648 ft | 295 kts | 217° |
| 2026-05-04 23:23 | 42.18975 | -70.75176 | 12327 ft | 296 kts | 234° |
| 2026-05-04 23:23 | 42.17920 | -70.77653 | 12523 ft | 318 kts | 252° |
| 2026-05-04 23:23 | 42.17372 | -70.80697 | 12727 ft | 343 kts | 261° |
| 2026-05-04 23:23 | 42.17012 | -70.83995 | 12918 ft | 368 kts | 262° |
| 2026-05-04 23:24 | 42.16639 | -70.87483 | 13588 ft | 378 kts | 262° |
| 2026-05-04 23:24 | 42.16247 | -70.91040 | 14340 ft | 385 kts | 263° |
| 2026-05-04 23:24 | 42.16041 | -70.94679 | 15132 ft | 390 kts | 269° |
| 2026-05-04 23:24 | 42.16116 | -70.98328 | 15926 ft | 394 kts | 273° |
| 2026-05-04 23:25 | 42.16353 | -71.02047 | 16721 ft | 398 kts | 275° |
| 2026-05-04 23:25 | 42.16634 | -71.05778 | 17491 ft | 403 kts | 275° |
| 2026-05-04 23:25 | 42.16921 | -71.09586 | 18245 ft | 407 kts | 275° |
| 2026-05-04 23:25 | 42.17197 | -71.13409 | 18990 ft | 411 kts | 275° |
| 2026-05-04 23:26 | 42.17467 | -71.17261 | 19721 ft | 415 kts | 275° |
| 2026-05-04 23:26 | 42.17735 | -71.21127 | 20438 ft | 418 kts | 275° |
| 2026-05-04 23:26 | 42.18012 | -71.25095 | 21156 ft | 422 kts | 275° |
| 2026-05-04 23:26 | 42.18284 | -71.29027 | 21822 ft | 427 kts | 275° |
| 2026-05-04 23:27 | 42.18562 | -71.33073 | 22475 ft | 431 kts | 276° |
| 2026-05-04 23:27 | 42.18841 | -71.37124 | 23109 ft | 436 kts | 276° |
| 2026-05-04 23:27 | 42.19129 | -71.41235 | 23734 ft | 440 kts | 276° |
| 2026-05-04 23:27 | 42.19427 | -71.45391 | 24334 ft | 445 kts | 277° |
| 2026-05-04 23:28 | 42.19732 | -71.49573 | 24908 ft | 450 kts | 277° |
| 2026-05-04 23:28 | 42.20040 | -71.53805 | 25465 ft | 455 kts | 277° |
| 2026-05-04 23:28 | 42.20349 | -71.58079 | 26017 ft | 459 kts | 277° |
| 2026-05-04 23:28 | 42.20663 | -71.62429 | 26590 ft | 463 kts | 277° |
| 2026-05-04 23:29 | 42.20974 | -71.66756 | 27162 ft | 467 kts | 277° |
| 2026-05-04 23:29 | 42.21260 | -71.71133 | 27830 ft | 469 kts | 275° |
| 2026-05-04 23:29 | 42.21409 | -71.75565 | 28560 ft | 469 kts | 273° |
| 2026-05-04 23:29 | 42.21392 | -71.79948 | 29314 ft | 468 kts | 270° |
| 2026-05-04 23:30 | 42.21223 | -71.84320 | 30112 ft | 467 kts | 268° |
| 2026-05-04 23:30 | 42.20969 | -71.88686 | 30924 ft | 464 kts | 268° |
| 2026-05-04 23:30 | 42.20695 | -71.93047 | 31723 ft | 461 kts | 268° |
| 2026-05-04 23:30 | 42.20428 | -71.97302 | 32488 ft | 457 kts | 268° |
| 2026-05-04 23:31 | 42.20160 | -72.01604 | 33240 ft | 453 kts | 268° |
| 2026-05-04 23:31 | 42.19900 | -72.05806 | 33835 ft | 449 kts | 268° |
| 2026-05-04 23:31 | 42.19642 | -72.10027 | 33995 ft | 445 kts | 268° |
| 2026-05-04 23:31 | 42.19391 | -72.14104 | 34000 ft | 439 kts | 268° |
| 2026-05-04 23:32 | 42.18887 | -72.22346 | 34014 ft | 433 kts | 268° |
| 2026-05-04 23:32 | 42.18410 | -72.30411 | 33900 ft | 432 kts | 269° |
| 2026-05-04 23:33 | 42.17935 | -72.38577 | 33829 ft | 434 kts | 269° |
| 2026-05-04 23:33 | 42.17469 | -72.46690 | 33805 ft | 435 kts | 269° |
| 2026-05-04 23:34 | 42.17003 | -72.54900 | 33800 ft | 435 kts | 269° |
| 2026-05-04 23:34 | 42.16544 | -72.63052 | 33808 ft | 435 kts | 269° |
| 2026-05-04 23:35 | 42.15329 | -72.71048 | 33847 ft | 442 kts | 252° |
| 2026-05-04 23:35 | 42.12228 | -72.78371 | 33852 ft | 453 kts | 237° |
| 2026-05-04 23:36 | 42.08229 | -72.84961 | 33841 ft | 456 kts | 236° |
| 2026-05-04 23:36 | 42.04216 | -72.91709 | 33840 ft | 456 kts | 237° |
| 2026-05-04 23:37 | 42.00279 | -72.98426 | 33842 ft | 456 kts | 237° |
| 2026-05-04 23:37 | 41.96347 | -73.05137 | 33829 ft | 456 kts | 237° |
| 2026-05-04 23:38 | 41.92370 | -73.11836 | 33816 ft | 457 kts | 236° |
| 2026-05-04 23:38 | 41.88370 | -73.18523 | 33832 ft | 457 kts | 237° |
| 2026-05-04 23:39 | 41.84421 | -73.25214 | 33851 ft | 456 kts | 237° |
| 2026-05-04 23:39 | 41.80489 | -73.31908 | 33868 ft | 456 kts | 237° |
| 2026-05-04 23:40 | 41.76474 | -73.38573 | 33881 ft | 457 kts | 237° |
| 2026-05-04 23:40 | 41.72462 | -73.45195 | 33888 ft | 457 kts | 237° |
| 2026-05-04 23:41 | 41.68481 | -73.51833 | 33891 ft | 456 kts | 237° |
| 2026-05-04 23:41 | 41.64516 | -73.58470 | 33891 ft | 456 kts | 238° |
| 2026-05-04 23:42 | 41.60538 | -73.65138 | 33885 ft | 456 kts | 237° |
| 2026-05-04 23:42 | 41.56567 | -73.71801 | 33880 ft | 457 kts | 237° |
| 2026-05-04 23:43 | 41.52586 | -73.78486 | 33873 ft | 457 kts | 237° |
| 2026-05-04 23:43 | 41.48359 | -73.84898 | 33869 ft | 462 kts | 231° |
| 2026-05-04 23:44 | 41.43750 | -73.90962 | 33854 ft | 463 kts | 231° |
| 2026-05-04 23:44 | 41.39166 | -73.97047 | 33840 ft | 463 kts | 231° |
| 2026-05-04 23:45 | 41.34613 | -74.03140 | 33828 ft | 463 kts | 231° |
| 2026-05-04 23:45 | 41.30056 | -74.09250 | 33823 ft | 463 kts | 231° |
| 2026-05-04 23:46 | 41.25515 | -74.15344 | 33826 ft | 463 kts | 231° |
| 2026-05-04 23:46 | 41.20967 | -74.21451 | 33825 ft | 464 kts | 231° |
| 2026-05-04 23:47 | 41.16955 | -74.28095 | 33837 ft | 453 kts | 244° |
| 2026-05-04 23:47 | 41.13793 | -74.35139 | 33838 ft | 451 kts | 245° |
| 2026-05-04 23:48 | 41.10555 | -74.42348 | 33817 ft | 452 kts | 244° |
| 2026-05-04 23:48 | 41.07275 | -74.49448 | 33452 ft | 449 kts | 244° |
| 2026-05-04 23:49 | 41.05637 | -74.52986 | 32694 ft | 451 kts | 244° |
| 2026-05-04 23:49 | 41.03992 | -74.56523 | 32061 ft | 450 kts | 244° |
| 2026-05-04 23:49 | 41.02338 | -74.60089 | 31283 ft | 450 kts | 244° |
| 2026-05-04 23:49 | 41.00702 | -74.63626 | 30479 ft | 451 kts | 244° |
| 2026-05-04 23:50 | 40.99076 | -74.67145 | 29689 ft | 451 kts | 243° |
| 2026-05-04 23:50 | 40.97425 | -74.70722 | 28897 ft | 452 kts | 243° |
| 2026-05-04 23:50 | 40.95800 | -74.74242 | 28111 ft | 449 kts | 243° |
| 2026-05-04 23:50 | 40.94144 | -74.77824 | 27734 ft | 452 kts | 243° |
| 2026-05-04 23:51 | 40.92509 | -74.81375 | 27589 ft | 459 kts | 243° |
| 2026-05-04 23:51 | 40.90836 | -74.84991 | 27512 ft | 459 kts | 242° |
| 2026-05-04 23:51 | 40.89107 | -74.88625 | 26633 ft | 465 kts | 241° |
| 2026-05-04 23:51 | 40.87385 | -74.92221 | 25883 ft | 465 kts | 241° |
| 2026-05-04 23:52 | 40.85663 | -74.95825 | 25284 ft | 462 kts | 242° |
| 2026-05-04 23:52 | 40.84039 | -74.99246 | 24970 ft | 461 kts | 242° |
| 2026-05-04 23:52 | 40.82342 | -75.02846 | 24479 ft | 459 kts | 242° |
| 2026-05-04 23:52 | 40.80648 | -75.06442 | 23934 ft | 456 kts | 242° |
| 2026-05-04 23:53 | 40.78974 | -75.09991 | 23398 ft | 453 kts | 241° |
| 2026-05-04 23:53 | 40.77306 | -75.13524 | 22869 ft | 450 kts | 241° |
| 2026-05-04 23:53 | 40.75658 | -75.17015 | 22422 ft | 447 kts | 241° |
| 2026-05-04 23:53 | 40.74012 | -75.20499 | 22007 ft | 445 kts | 241° |
| 2026-05-04 23:54 | 40.72377 | -75.23966 | 21588 ft | 442 kts | 241° |
| 2026-05-04 23:54 | 40.70732 | -75.27457 | 21167 ft | 440 kts | 241° |
| 2026-05-04 23:54 | 40.69138 | -75.30844 | 20752 ft | 437 kts | 241° |
| 2026-05-04 23:54 | 40.67534 | -75.34257 | 20335 ft | 434 kts | 241° |
| 2026-05-04 23:55 | 40.65949 | -75.37636 | 19936 ft | 431 kts | 241° |
| 2026-05-04 23:55 | 40.64381 | -75.41038 | 19850 ft | 429 kts | 242° |
| 2026-05-04 23:55 | 40.61398 | -75.47869 | 19795 ft | 430 kts | 243° |
| 2026-05-04 23:56 | 40.59922 | -75.51301 | 19787 ft | 430 kts | 243° |
| 2026-05-04 23:56 | 40.58421 | -75.54793 | 19786 ft | 430 kts | 243° |
| 2026-05-04 23:56 | 40.56952 | -75.58202 | 19817 ft | 430 kts | 243° |
| 2026-05-04 23:56 | 40.55466 | -75.61649 | 19835 ft | 430 kts | 243° |
| 2026-05-04 23:57 | 40.53982 | -75.65091 | 19849 ft | 430 kts | 242° |
| 2026-05-04 23:57 | 40.52486 | -75.68559 | 19864 ft | 430 kts | 243° |
| 2026-05-04 23:57 | 40.51008 | -75.71990 | 19864 ft | 430 kts | 243° |
| 2026-05-04 23:57 | 40.49537 | -75.75408 | 19736 ft | 429 kts | 243° |
| 2026-05-04 23:58 | 40.48051 | -75.78861 | 19656 ft | 428 kts | 243° |
| 2026-05-04 23:58 | 40.46594 | -75.82252 | 19576 ft | 427 kts | 243° |
| 2026-05-04 23:58 | 40.45110 | -75.85666 | 19479 ft | 428 kts | 241° |
| 2026-05-04 23:58 | 40.43393 | -75.88937 | 19369 ft | 429 kts | 234° |
| 2026-05-04 23:59 | 40.41408 | -75.91859 | 19263 ft | 431 kts | 228° |
| 2026-05-04 23:59 | 40.39214 | -75.94631 | 19144 ft | 432 kts | 226° |
| 2026-05-04 23:59 | 40.37022 | -75.97317 | 19022 ft | 429 kts | 226° |
| 2026-05-04 23:59 | 40.34858 | -75.99998 | 18298 ft | 428 kts | 226° |
| 2026-05-05 00:00 | 40.32713 | -76.02685 | 17715 ft | 423 kts | 227° |
| 2026-05-05 00:00 | 40.31295 | -76.04469 | 17323 ft | 419 kts | 227° |
| 2026-05-05 00:00 | 40.28586 | -76.07887 | 16523 ft | 412 kts | 227° |
| 2026-05-05 00:00 | 40.26508 | -76.10515 | 15881 ft | 408 kts | 227° |
| 2026-05-05 00:01 | 40.24478 | -76.13082 | 15246 ft | 403 kts | 227° |
| 2026-05-05 00:01 | 40.22465 | -76.15629 | 14596 ft | 399 kts | 227° |
| 2026-05-05 00:01 | 40.20458 | -76.18162 | 14054 ft | 396 kts | 227° |
| 2026-05-05 00:01 | 40.18483 | -76.20656 | 13970 ft | 395 kts | 227° |
| 2026-05-05 00:02 | 40.16486 | -76.23180 | 13930 ft | 397 kts | 227° |
| 2026-05-05 00:02 | 40.14481 | -76.25733 | 13922 ft | 397 kts | 227° |
| 2026-05-05 00:02 | 40.12559 | -76.28352 | 13934 ft | 397 kts | 232° |
| 2026-05-05 00:02 | 40.10870 | -76.31209 | 13950 ft | 395 kts | 238° |
| 2026-05-05 00:03 | 40.09385 | -76.34251 | 13961 ft | 394 kts | 241° |
| 2026-05-05 00:03 | 40.07986 | -76.37337 | 13968 ft | 394 kts | 242° |
| 2026-05-05 00:03 | 40.06598 | -76.40434 | 13973 ft | 394 kts | 242° |
| 2026-05-05 00:03 | 40.05191 | -76.43552 | 13982 ft | 393 kts | 242° |
| 2026-05-05 00:04 | 40.03778 | -76.46648 | 13987 ft | 394 kts | 241° |
| 2026-05-05 00:04 | 40.02343 | -76.49690 | 13988 ft | 394 kts | 241° |
| 2026-05-05 00:04 | 40.00908 | -76.52756 | 13987 ft | 394 kts | 241° |
| 2026-05-05 00:04 | 39.99474 | -76.55849 | 13991 ft | 394 kts | 241° |
| 2026-05-05 00:05 | 39.98063 | -76.58916 | 13990 ft | 393 kts | 242° |
| 2026-05-05 00:05 | 39.96666 | -76.61989 | 13988 ft | 394 kts | 242° |
| 2026-05-05 00:05 | 39.95216 | -76.65101 | 13988 ft | 394 kts | 240° |
| 2026-05-05 00:05 | 39.93761 | -76.68124 | 13987 ft | 394 kts | 240° |
| 2026-05-05 00:06 | 39.92314 | -76.71182 | 13990 ft | 394 kts | 240° |
| 2026-05-05 00:06 | 39.90891 | -76.74231 | 13761 ft | 390 kts | 240° |
| 2026-05-05 00:06 | 39.89482 | -76.77250 | 13213 ft | 387 kts | 240° |
| 2026-05-05 00:06 | 39.88081 | -76.80261 | 12872 ft | 386 kts | 241° |
| 2026-05-05 00:07 | 39.86757 | -76.83124 | 12633 ft | 385 kts | 241° |
| 2026-05-05 00:07 | 39.85372 | -76.86114 | 12438 ft | 383 kts | 241° |
| 2026-05-05 00:07 | 39.84000 | -76.89073 | 12255 ft | 382 kts | 241° |
| 2026-05-05 00:07 | 39.82612 | -76.92068 | 12072 ft | 381 kts | 241° |
| 2026-05-05 00:08 | 39.81244 | -76.94998 | 11820 ft | 377 kts | 240° |
| 2026-05-05 00:08 | 39.79925 | -76.97787 | 11605 ft | 364 kts | 240° |
| 2026-05-05 00:08 | 39.78642 | -77.00533 | 11431 ft | 349 kts | 241° |
| 2026-05-05 00:08 | 39.77390 | -77.03204 | 11087 ft | 342 kts | 240° |
| 2026-05-05 00:09 | 39.76115 | -77.05837 | 10697 ft | 334 kts | 240° |
| 2026-05-05 00:09 | 39.74897 | -77.08368 | 10475 ft | 323 kts | 241° |
| 2026-05-05 00:09 | 39.73750 | -77.10820 | 10343 ft | 310 kts | 241° |
| 2026-05-05 00:09 | 39.72665 | -77.13150 | 10260 ft | 296 kts | 241° |
| 2026-05-05 00:10 | 39.71610 | -77.15402 | 10176 ft | 284 kts | 241° |
| 2026-05-05 00:10 | 39.70587 | -77.17574 | 10097 ft | 277 kts | 240° |
| 2026-05-05 00:10 | 39.69599 | -77.19707 | 10028 ft | 269 kts | 240° |
| 2026-05-05 00:10 | 39.68579 | -77.21719 | 10027 ft | 261 kts | 235° |
| 2026-05-05 00:11 | 39.67414 | -77.23548 | 9895 ft | 262 kts | 229° |
| 2026-05-05 00:11 | 39.66110 | -77.25233 | 9617 ft | 261 kts | 225° |
| 2026-05-05 00:11 | 39.64759 | -77.26831 | 9360 ft | 261 kts | 225° |
| 2026-05-05 00:11 | 39.63404 | -77.28416 | 9138 ft | 261 kts | 225° |
| 2026-05-05 00:12 | 39.62058 | -77.30016 | 9110 ft | 263 kts | 225° |
| 2026-05-05 00:12 | 39.60709 | -77.31652 | 9074 ft | 262 kts | 226° |
| 2026-05-05 00:12 | 39.59367 | -77.33276 | 9053 ft | 262 kts | 225° |
| 2026-05-05 00:12 | 39.58029 | -77.34885 | 9050 ft | 261 kts | 225° |
| 2026-05-05 00:13 | 39.56664 | -77.36463 | 8952 ft | 263 kts | 221° |
| 2026-05-05 00:13 | 39.55178 | -77.37856 | 8640 ft | 262 kts | 214° |
| 2026-05-05 00:13 | 39.53567 | -77.39001 | 8410 ft | 259 kts | 210° |
| 2026-05-05 00:13 | 39.51949 | -77.40065 | 8254 ft | 259 kts | 210° |
| 2026-05-05 00:14 | 39.50357 | -77.41197 | 8134 ft | 257 kts | 213° |
| 2026-05-05 00:14 | 39.48818 | -77.42377 | 8058 ft | 246 kts | 213° |
| 2026-05-05 00:14 | 39.47392 | -77.43507 | 8021 ft | 238 kts | 214° |
| 2026-05-05 00:14 | 39.45948 | -77.44565 | 7938 ft | 231 kts | 205° |
| 2026-05-05 00:15 | 39.44410 | -77.45163 | 7766 ft | 234 kts | 191° |
| 2026-05-05 00:15 | 39.42773 | -77.45349 | 7494 ft | 234 kts | 185° |
| 2026-05-05 00:15 | 39.41141 | -77.45337 | 7230 ft | 235 kts | 182° |
| 2026-05-05 00:15 | 39.39612 | -77.45277 | 7006 ft | 234 kts | 183° |
| 2026-05-05 00:16 | 39.37983 | -77.45242 | 6760 ft | 234 kts | 184° |
| 2026-05-05 00:16 | 39.36330 | -77.45256 | 6475 ft | 233 kts | 185° |
| 2026-05-05 00:16 | 39.34713 | -77.45291 | 6241 ft | 229 kts | 185° |
| 2026-05-05 00:16 | 39.33097 | -77.45349 | 6358 ft | 230 kts | 185° |
| 2026-05-05 00:17 | 39.31491 | -77.45412 | 6115 ft | 232 kts | 185° |
| 2026-05-05 00:17 | 39.29900 | -77.45448 | 5776 ft | 219 kts | 184° |
| 2026-05-05 00:17 | 39.28410 | -77.45454 | 5536 ft | 207 kts | 184° |
| 2026-05-05 00:17 | 39.26992 | -77.45470 | 5339 ft | 201 kts | 184° |
| 2026-05-05 00:18 | 39.25588 | -77.45504 | 5120 ft | 201 kts | 185° |
| 2026-05-05 00:18 | 39.24184 | -77.45542 | 4899 ft | 202 kts | 184° |
| 2026-05-05 00:18 | 39.22757 | -77.45569 | 4656 ft | 200 kts | 184° |
| 2026-05-05 00:18 | 39.21362 | -77.45584 | 4443 ft | 200 kts | 183° |
| 2026-05-05 00:19 | 39.19956 | -77.45589 | 4200 ft | 199 kts | 183° |
| 2026-05-05 00:19 | 39.18559 | -77.45589 | 3963 ft | 198 kts | 183° |
| 2026-05-05 00:19 | 39.17175 | -77.45612 | 3870 ft | 196 kts | 184° |
| 2026-05-05 00:19 | 39.15799 | -77.45651 | 3793 ft | 199 kts | 184° |
| 2026-05-05 00:20 | 39.14394 | -77.45699 | 3528 ft | 198 kts | 184° |
| 2026-05-05 00:20 | 39.13048 | -77.45726 | 3275 ft | 188 kts | 182° |
| 2026-05-05 00:20 | 39.11771 | -77.45729 | 3072 ft | 175 kts | 182° |
| 2026-05-05 00:20 | 39.10563 | -77.45725 | 2849 ft | 168 kts | 182° |
| 2026-05-05 00:21 | 39.09395 | -77.45721 | 2635 ft | 169 kts | 183° |
| 2026-05-05 00:21 | 39.08234 | -77.45731 | 2430 ft | 162 kts | 183° |
| 2026-05-05 00:21 | 39.07118 | -77.45736 | 2222 ft | 159 kts | 184° |
| 2026-05-05 00:21 | 39.05991 | -77.45763 | 2006 ft | 159 kts | 184° |
| 2026-05-05 00:22 | 39.04919 | -77.45798 | 1789 ft | 160 kts | 183° |
| 2026-05-05 00:22 | 39.03794 | -77.45818 | 1596 ft | 158 kts | 183° |
| 2026-05-05 00:22 | 39.02697 | -77.45834 | 1345 ft | 157 kts | 183° |
| 2026-05-05 00:22 | 39.01598 | -77.45866 | 1167 ft | 159 kts | 184° |
| 2026-05-05 00:23 | 39.00434 | -77.45921 | 1040 ft | 167 kts | 183° |
| 2026-05-05 00:23 | 38.99274 | -77.45953 | 627 ft | 163 kts | 181° |
| 2026-05-05 00:23 | 38.98158 | -77.45931 | 456 ft | 157 kts | 180° |
| 2026-05-05 00:23 | 38.97075 | -77.45928 | 345 ft | 152 kts | 182° |
| 2026-05-05 00:24 | 38.96023 | -77.45943 | 281 ft | 145 kts | 181° |
| 2026-05-05 00:24 | 38.95206 | -77.45961 | 286 ft | 72 kts | 180° |
| 2026-05-05 00:24 | 38.94935 | -77.45960 | 289 ft | 28 kts | 178° |
| 2026-05-05 00:24 | 38.94724 | -77.45959 | 290 ft | 23 kts | 178° |
| 2026-05-05 00:25 | 38.94666 | -77.45858 | 291 ft | 15 kts | 99° |
| 2026-05-05 00:25 | 38.94675 | -77.45740 | 293 ft | 12 kts | 43° |
| 2026-05-05 00:25 | 38.94761 | -77.45721 | 292 ft | 13 kts | 1° |
| 2026-05-05 00:25 | 38.94861 | -77.45719 | 291 ft | 15 kts | 360° |
| 2026-05-05 00:26 | 38.94970 | -77.45715 | 290 ft | 15 kts | 1° |
| 2026-05-05 00:26 | 38.95081 | -77.45715 | 290 ft | 16 kts | 360° |
| 2026-05-05 00:26 | 38.95202 | -77.45718 | 287 ft | 18 kts | 360° |
| 2026-05-05 00:26 | 38.95329 | -77.45715 | 287 ft | 18 kts | 1° |
| 2026-05-05 00:27 | 38.95458 | -77.45712 | 287 ft | 18 kts | 1° |
| 2026-05-05 00:27 | 38.95592 | -77.45712 | 286 ft | 19 kts | 360° |
| 2026-05-05 00:27 | 38.95702 | -77.45693 | 284 ft | 13 kts | 38° |
| 2026-05-05 00:27 | 38.95725 | -77.45592 | 286 ft | 10 kts | 91° |
| 2026-05-05 00:28 | 38.95737 | -77.45521 | 288 ft | 6 kts | 44° |
| 2026-05-05 00:28 | 38.95779 | -77.45501 | 288 ft | 6 kts | 15° |
| 2026-05-05 00:28 | 38.95824 | -77.45489 | 288 ft | 7 kts | 9° |
| 2026-05-05 00:28 | 38.95882 | -77.45482 | 288 ft | 8 kts | 0° |
| 2026-05-05 00:29 | 38.95931 | -77.45484 | 288 ft | 0 kts | 360° |
| 2026-05-05 00:29 | 38.95949 | -77.45484 | 288 ft | 4 kts | 1° |
| 2026-05-05 00:29 | 38.95966 | -77.45474 | 288 ft | 3 kts | 45° |
| 2026-05-05 00:29 | 38.95976 | -77.45438 | 288 ft | 2 kts | 91° |
| 2026-05-05 00:30 | 38.95976 | -77.45415 | 288 ft | 4 kts | 89° |
| 2026-05-05 00:30 | 38.95976 | -77.45407 | 288 ft | 0 kts | 91° |